Time;durP1;ratioP1;P1;durP2;ratioP2;P2;SDS_P1;SDS_P2;PMS_P1;PMS_P2;Temp;Humidity;BMP_temperature;BMP_pressure;BME280_temperature;BME280_humidity;BME280_pressure;Samples;Min_cycle;Max_cycle;Signal;HPM_P1;HPM_P2
2021/03/25 00:00:10;;;;;;;;;;;;;;;6.42;59.53;100349.53;4363888;32;19983;-88
2021/03/25 00:02:35;;;;;;;;;;;;;;;6.42;59.54;100350.41;4376766;32;19982;-87
2021/03/25 00:05:00;;;;;;;;;;;;;;;6.30;59.53;100342.69;4376191;32;21542;-87
2021/03/25 00:07:25;;;;;;;;;;;;;;;6.24;59.52;100350.47;4376331;32;19994;-88
2021/03/25 00:09:50;;;;;;;;;;;;;;;6.40;59.53;100349.56;4375509;32;36894;-88
2021/03/25 00:12:16;;;;;;;;;;;;;;;6.36;59.54;100353.00;4375331;32;38040;-87
2021/03/25 00:14:41;;;;;;;;;;;;;;;6.40;59.53;100348.69;4377539;32;19998;-87
2021/03/25 00:17:06;;;;;;;;;;;;;;;6.45;59.54;100349.53;4376817;32;28681;-88
2021/03/25 00:19:31;;;;;;;;;;;;;;;6.49;59.53;100356.38;4375478;32;26991;-87
2021/03/25 00:21:57;;;;;;;;;;;;;;;6.20;59.53;100351.38;4375419;32;30903;-87
2021/03/25 00:24:22;;;;;;;;;;;;;;;6.17;59.52;100343.62;4377550;32;20301;-87
2021/03/25 00:26:47;;;;;;;;;;;;;;;6.29;59.53;100343.56;4377493;32;19995;-87
2021/03/25 00:29:13;;;;;;;;;;;;;;;6.26;59.52;100347.91;4375553;32;28507;-87
2021/03/25 00:31:38;;;;;;;;;;;;;;;6.25;59.52;100349.63;4376183;32;20033;-87
2021/03/25 00:34:04;;;;;;;;;;;;;;;6.15;59.52;100348.81;4376230;32;20007;-87
2021/03/25 00:36:29;;;;;;;;;;;;;;;6.25;59.53;100353.94;4376176;32;20356;-86
2021/03/25 00:38:56;;;;;;;;;;;;;;;6.11;59.51;100352.25;4377600;32;20362;-86
2021/03/25 00:41:21;;;;;;;;;;;;;;;6.35;59.54;100346.09;4376281;32;19997;-87
2021/03/25 00:43:46;;;;;;;;;;;;;;;6.31;59.53;100344.41;4375426;32;27808;-87
2021/03/25 00:46:11;;;;;;;;;;;;;;;6.14;59.52;100341.03;4376627;32;31200;-87
2021/03/25 00:48:37;;;;;;;;;;;;;;;6.18;59.52;100349.66;4375947;32;20025;-88
2021/03/25 00:51:02;;;;;;;;;;;;;;;6.05;59.51;100349.69;4375481;32;28973;-88
2021/03/25 00:53:28;;;;;;;;;;;;;;;6.06;59.52;100342.81;4375964;32;20018;-87
2021/03/25 00:55:54;;;;;;;;;;;;;;;5.94;59.51;100345.47;4376020;32;20051;-88
2021/03/25 00:58:19;;;;;;;;;;;;;;;5.93;59.51;100352.34;4375526;32;20703;-88
2021/03/25 01:00:44;;;;;;;;;;;;;;;5.99;59.51;100347.16;4375807;32;19998;-87
2021/03/25 01:03:10;;;;;;;;;;;;;;;6.09;59.52;100346.22;4377197;32;19979;-88
2021/03/25 01:05:35;;;;;;;;;;;;;;;6.06;59.52;100347.97;4377289;32;19986;-88
2021/03/25 01:08:00;;;;;;;;;;;;;;;6.10;59.52;100339.34;4375829;32;19986;-88
2021/03/25 01:10:28;;;;;;;;;;;;;;;5.90;59.51;100342.00;4375836;32;20463;-88
2021/03/25 01:12:54;;;;;;;;;;;;;;;5.97;59.51;100342.84;4375845;32;19995;-86
2021/03/25 01:15:19;;;;;;;;;;;;;;;6.01;59.51;100332.50;4375989;32;20029;-87
2021/03/25 01:17:46;;;;;;;;;;;;;;;5.99;59.51;100339.41;4376041;32;20317;-86
2021/03/25 01:20:12;;;;;;;;;;;;;;;6.00;59.52;100350.59;4376372;32;20054;-87
2021/03/25 01:22:38;;;;;;;;;;;;;;;6.14;59.52;100341.03;4376086;32;19991;-87
2021/03/25 01:25:03;;;;;;;;;;;;;;;6.21;59.53;100336.72;4375427;32;30112;-88
2021/03/25 01:27:28;;;;;;;;;;;;;;;6.03;59.51;100337.66;4376002;32;19979;-88
2021/03/25 01:29:53;;;;;;;;;;;;;;;5.99;59.51;100338.53;4375976;32;27669;-88
2021/03/25 01:32:19;;;;;;;;;;;;;;;5.99;59.51;100331.66;4375932;32;20326;-88
2021/03/25 01:34:44;;;;;;;;;;;;;;;6.10;59.52;100329.84;4375317;32;28852;-88
2021/03/25 01:37:09;;;;;;;;;;;;;;;6.20;59.53;100322.94;4375084;32;28286;-88
2021/03/25 01:39:35;;;;;;;;;;;;;;;6.12;59.51;100322.94;4375865;32;19990;-88
2021/03/25 01:42:00;;;;;;;;;;;;;;;6.13;59.53;100323.81;4375815;32;19986;-89
2021/03/25 01:44:29;;;;;;;;;;;;;;;6.19;59.52;100330.69;4375246;32;27038;-88
2021/03/25 01:46:54;;;;;;;;;;;;;;;6.15;59.52;100328.13;4363161;32;20304;-90
2021/03/25 01:49:19;;;;;;;;;;;;;;;6.21;59.53;100329.81;4375407;32;20002;-88
2021/03/25 01:51:47;;;;;;;;;;;;;;;6.13;59.51;100316.06;4374604;32;29328;-88
2021/03/25 01:54:13;;;;;;;;;;;;;;;6.15;59.52;100330.72;4376760;32;19987;-88
2021/03/25 01:56:44;;;;;;;;;;;;;;;6.11;59.51;100326.41;4375348;32;20321;-88
2021/03/25 01:59:18;;;;;;;;;;;;;;;6.16;59.52;100326.41;4378294;32;20034;-88
2021/03/25 02:01:49;;;;;;;;;;;;;;;6.34;59.53;100320.25;4376535;32;20364;-87
2021/03/25 02:04:14;;;;;;;;;;;;;;;6.19;59.52;100325.53;4375303;32;20375;-87
2021/03/25 02:06:58;;;;;;;;;;;;;;;6.25;59.53;100321.19;4376554;32;19975;-87
2021/03/25 02:09:29;;;;;;;;;;;;;;;6.38;59.53;100320.22;4376778;32;20260;-86
2021/03/25 02:11:57;;;;;;;;;;;;;;;6.41;59.53;100316.78;4376450;32;19995;-87
2021/03/25 02:14:28;;;;;;;;;;;;;;;6.32;59.53;100319.41;4375215;32;20414;-87
2021/03/25 02:17:02;;;;;;;;;;;;;;;6.35;59.54;100324.56;4376134;32;19966;-86
2021/03/25 02:19:39;;;;;;;;;;;;;;;6.34;59.53;100317.69;4376381;32;19975;-87
2021/03/25 02:22:08;;;;;;;;;;;;;;;6.18;59.52;100311.75;4376458;32;20013;-87
2021/03/25 02:24:51;;;;;;;;;;;;;;;6.23;59.53;100319.47;4376463;32;20009;-86
2021/03/25 02:27:35;;;;;;;;;;;;;;;6.28;59.52;100317.72;4376550;32;20478;-86
2021/03/25 02:30:06;;;;;;;;;;;;;;;6.18;59.52;100318.66;4374854;32;20367;-87
2021/03/25 02:32:33;;;;;;;;;;;;;;;6.09;59.52;100311.78;4362279;32;19995;-87
2021/03/25 02:34:59;;;;;;;;;;;;;;;6.11;59.51;100312.63;4374894;32;20043;-87
2021/03/25 02:37:28;;;;;;;;;;;;;;;6.27;59.52;100319.44;4374802;32;19985;-87
2021/03/25 02:40:17;;;;;;;;;;;;;;;6.35;59.54;100312.50;4374815;32;20291;-87
2021/03/25 02:42:49;;;;;;;;;;;;;;;6.30;59.53;100319.41;4375316;32;19999;-87
2021/03/25 02:45:16;;;;;;;;;;;;;;;6.27;59.52;100311.69;4377018;32;20012;-87
2021/03/25 02:47:41;;;;;;;;;;;;;;;6.37;59.53;100312.47;4376982;32;19975;-87
2021/03/25 02:50:06;;;;;;;;;;;;;;;6.43;59.54;100309.88;4376463;32;25588;-87
2021/03/25 02:52:35;;;;;;;;;;;;;;;6.53;59.54;100310.66;4378180;32;19995;-87
2021/03/25 02:55:02;;;;;;;;;;;;;;;6.48;59.54;100313.28;4377177;32;20340;-87
2021/03/25 02:57:37;;;;;;;;;;;;;;;6.58;59.55;100316.66;4377152;32;19979;-87
2021/03/25 03:00:06;;;;;;;;;;;;;;;6.59;59.55;100313.22;4377232;32;19978;-87
2021/03/25 03:02:33;;;;;;;;;;;;;;;6.37;59.53;100315.94;4376819;32;20049;-86
2021/03/25 03:05:00;;;;;;;;;;;;;;;6.41;59.53;100309.03;4376912;32;20025;-87
2021/03/25 03:07:27;;;;;;;;;;;;;;;6.34;59.53;100308.19;4376477;32;19975;-87
2021/03/25 03:09:53;;;;;;;;;;;;;;;6.53;59.55;100315.84;4376812;32;19987;-87
2021/03/25 03:12:20;;;;;;;;;;;;;;;6.60;59.55;100312.34;4376665;32;19999;-87
2021/03/25 03:14:49;;;;;;;;;;;;;;;6.46;59.54;100317.63;4376804;32;20009;-87
2021/03/25 03:17:14;;;;;;;;;;;;;;;6.48;59.54;100318.47;4377007;32;19983;-86
2021/03/25 03:19:42;;;;;;;;;;;;;;;6.47;59.54;100324.50;4376546;32;20023;-89
2021/03/25 03:22:07;;;;;;;;;;;;;;;6.37;59.53;100318.50;4364007;32;20013;-89
2021/03/25 03:24:33;;;;;;;;;;;;;;;6.38;59.53;100314.19;4376319;32;20307;-89
2021/03/25 03:27:06;;;;;;;;;;;;;;;6.33;59.53;100314.22;4376513;32;19982;-89
2021/03/25 03:29:31;;;;;;;;;;;;;;;6.26;59.52;100309.97;4376610;32;19994;-87
2021/03/25 03:32:17;;;;;;;;;;;;;;;6.43;59.54;100307.28;4376553;32;20002;-88
2021/03/25 03:34:43;;;;;;;;;;;;;;;6.49;59.54;100314.16;4376730;32;20560;-88
2021/03/25 03:37:10;;;;;;;;;;;;;;;6.58;59.54;100319.25;4376521;32;20378;-88
2021/03/25 03:39:35;;;;;;;;;;;;;;;6.52;59.54;100316.72;4376690;32;20044;-87
2021/03/25 03:42:02;;;;;;;;;;;;;;;6.67;59.55;100319.22;4375744;32;35859;-88
2021/03/25 03:44:28;;;;;;;;;;;;;;;6.66;59.55;100320.09;4376676;32;20062;-87
2021/03/25 03:46:53;;;;;;;;;;;;;;;6.60;59.55;100314.94;4376494;32;20238;-89
2021/03/25 03:49:18;;;;;;;;;;;;;;;6.57;59.54;100315.81;4376443;32;20009;-88
2021/03/25 03:51:47;;;;;;;;;;;;;;;6.58;59.55;100327.00;4376468;32;19987;-89
2021/03/25 03:54:13;;;;;;;;;;;;;;;6.56;59.54;100323.56;4376231;32;19991;-88
2021/03/25 03:56:52;;;;;;;;;;;;;;;6.60;59.55;100327.84;4376351;32;20030;-88
2021/03/25 03:59:23;;;;;;;;;;;;;;;6.68;59.55;100326.09;4376423;32;20049;-88
2021/03/25 04:01:49;;;;;;;;;;;;;;;6.68;59.55;100320.91;4376448;32;20041;-86
2021/03/25 04:04:16;;;;;;;;;;;;;;;6.69;59.55;100315.75;4376675;32;20045;-86
2021/03/25 04:06:46;;;;;;;;;;;;;;;6.58;59.55;100320.09;4376738;32;19974;-87
2021/03/25 04:09:13;;;;;;;;;;;;;;;6.69;59.55;100317.47;4376567;32;20043;-86
2021/03/25 04:11:48;;;;;;;;;;;;;;;6.63;59.54;100318.37;4376297;32;20006;-86
2021/03/25 04:14:14;;;;;;;;;;;;;;;6.65;59.54;100326.13;4376360;32;19998;-87
2021/03/25 04:16:40;;;;;;;;;;;;;;;6.66;59.55;100322.66;4376173;32;20327;-87
2021/03/25 04:19:10;;;;;;;;;;;;;;;6.73;59.56;100320.00;4376249;32;19989;-86
2021/03/25 04:21:37;;;;;;;;;;;;;;;6.68;59.55;100326.09;4376149;32;20376;-87
2021/03/25 04:24:07;;;;;;;;;;;;;;;6.57;59.54;100322.72;4376363;32;20352;-88
2021/03/25 04:26:38;;;;;;;;;;;;;;;6.62;59.54;100320.94;4376364;32;20001;-87
2021/03/25 04:29:04;;;;;;;;;;;;;;;6.77;59.55;100318.25;4376288;32;20015;-89
2021/03/25 04:31:29;;;;;;;;;;;;;;;6.65;59.54;100321.81;4376334;32;20013;-89
2021/03/25 04:33:55;;;;;;;;;;;;;;;6.68;59.55;100326.94;4377642;32;20010;-89
2021/03/25 04:36:20;;;;;;;;;;;;;;;6.74;59.56;100328.63;4376463;32;19970;-88
2021/03/25 04:38:45;;;;;;;;;;;;;;;6.78;59.55;100336.34;4376283;32;19970;-88
2021/03/25 04:41:11;;;;;;;;;;;;;;;6.81;59.56;100334.63;4375462;32;28386;-88
2021/03/25 04:43:36;;;;;;;;;;;;;;;6.74;59.56;100341.56;4376132;32;20061;-88
2021/03/25 04:46:07;;;;;;;;;;;;;;;6.83;59.56;100335.47;4376489;32;30480;-88
2021/03/25 04:48:33;;;;;;;;;;;;;;;6.86;59.56;100338.91;4376151;32;19998;-86
2021/03/25 04:51:02;;;;;;;;;;;;;;;6.91;59.56;100334.56;4376105;32;20010;-87
2021/03/25 04:53:31;;;;;;;;;;;;;;;6.84;59.55;100337.19;4377514;32;20344;-87
2021/03/25 04:55:56;;;;;;;;;;;;;;;6.80;59.56;100336.34;4376013;32;19985;-87
2021/03/25 04:58:26;;;;;;;;;;;;;;;6.88;59.57;100339.75;4376070;32;20019;-86
2021/03/25 05:00:51;;;;;;;;;;;;;;;6.86;59.56;100340.59;4376066;32;20047;-86
2021/03/25 05:03:20;;;;;;;;;;;;;;;6.96;59.57;100342.28;4376057;32;20022;-86
2021/03/25 05:05:46;;;;;;;;;;;;;;;6.88;59.56;100338.91;4374942;32;19979;-86
2021/03/25 05:08:11;;;;;;;;;;;;;;;6.91;59.56;100344.91;4375143;32;34895;-87
2021/03/25 05:10:47;;;;;;;;;;;;;;;6.94;59.56;100344.00;4375926;32;20085;-86
2021/03/25 05:13:25;;;;;;;;;;;;;;;7.07;59.57;100337.84;4376229;32;19999;-86
2021/03/25 05:15:53;;;;;;;;;;;;;;;7.19;59.58;100342.09;4376007;32;20002;-86
2021/03/25 05:18:21;;;;;;;;;;;;;;;7.06;59.57;100339.59;4375933;32;19990;-86
2021/03/25 05:20:48;;;;;;;;;;;;;;;7.17;59.57;100349.00;4375994;32;20022;-85
2021/03/25 05:23:16;;;;;;;;;;;;;;;7.28;59.58;100349.75;4376013;32;19995;-86
2021/03/25 05:25:52;;;;;;;;;;;;;;;7.26;59.58;100351.50;4377181;32;20005;-86
2021/03/25 05:28:31;;;;;;;;;;;;;;;7.34;59.59;100349.72;4375925;32;20001;-85
2021/03/25 05:30:57;;;;;;;;;;;;;;;7.22;59.58;100345.50;4375976;32;20482;-86
2021/03/25 05:33:23;;;;;;;;;;;;;;;7.38;59.59;100346.22;4374931;32;35037;-86
2021/03/25 05:35:53;;;;;;;;;;;;;;;7.47;59.59;100342.69;4375508;32;20572;-86
2021/03/25 05:38:19;;;;;;;;;;;;;;;7.44;59.59;100350.47;4375666;32;19982;-85
2021/03/25 05:41:02;;;;;;;;;;;;;;;7.74;59.61;100357.06;4375438;32;19991;-86
2021/03/25 05:43:31;;;;;;;;;;;;;;;7.79;59.61;100356.13;4375671;32;20050;-86
2021/03/25 05:46:01;;;;;;;;;;;;;;;7.70;59.61;100351.06;4376909;32;20082;-86
2021/03/25 05:48:40;;;;;;;;;;;;;;;7.52;59.59;100352.09;4375619;32;20316;-86
2021/03/25 05:51:13;;;;;;;;;;;;;;;7.67;59.60;100349.37;4376086;32;19995;-87
2021/03/25 05:54:02;;;;;;;;;;;;;;;7.86;59.62;100360.41;4375616;32;19998;-86
2021/03/25 05:56:44;;;;;;;;;;;;;;;8.02;59.62;100359.34;4348036;32;19993;-88
2021/03/25 05:59:10;;;;;;;;;;;;;;;7.95;59.62;100364.62;4375543;32;20044;-86
2021/03/25 06:01:39;;;;;;;;;;;;;;;8.11;59.63;100360.13;4375354;32;19975;-86
2021/03/25 06:04:15;;;;;;;;;;;;;;;7.85;59.62;100368.19;4375477;32;20029;-86
2021/03/25 06:06:59;;;;;;;;;;;;;;;7.94;59.62;100362.91;4375457;32;20256;-85
2021/03/25 06:09:30;;;;;;;;;;;;;;;7.86;59.62;100367.31;4376911;32;20323;-85
2021/03/25 06:12:03;;;;;;;;;;;;;;;8.18;59.63;100366.94;4375217;32;20011;-86
2021/03/25 06:14:28;;;;;;;;;;;;;;;8.34;59.64;100370.25;4376427;32;20005;-86
2021/03/25 06:17:06;;;;;;;;;;;;;;;8.38;59.65;100369.31;4377326;32;19993;-86
2021/03/25 06:19:43;;;;;;;;;;;;;;;8.54;59.65;100370.84;4377088;32;19999;-86
2021/03/25 06:22:11;;;;;;;;;;;;;;;8.63;59.66;100373.28;4378427;32;19987;-86
2021/03/25 06:24:36;;;;;;;;;;;;;;;8.58;59.65;100382.87;4377088;32;19995;-85
2021/03/25 06:27:01;;;;;;;;;;;;;;;8.61;59.66;100372.44;4378280;32;20322;-86
2021/03/25 06:29:28;;;;;;;;;;;;;;;8.73;59.66;100372.25;4378460;32;19975;-86
2021/03/25 06:32:04;;;;;;;;;;;;;;;8.57;59.65;100378.56;4377001;32;20022;-86
2021/03/25 06:34:43;;;;;;;;;;;;;;;8.97;59.68;100376.22;4377104;32;19994;-86
2021/03/25 06:37:27;;;;;;;;;;;;;;;9.10;59.68;100376.91;4376852;32;20028;-86
2021/03/25 06:39:57;;;;;;;;;;;;;;;9.26;59.70;100383.59;4378668;32;19990;-86
2021/03/25 06:42:28;;;;;;;;;;;;;;;9.27;59.70;100377.50;4377243;32;20006;-83
2021/03/25 06:45:00;;;;;;;;;;;;;;;9.42;59.71;100374.62;4378629;32;20320;-85
2021/03/25 06:47:45;;;;;;;;;;;;;;;9.47;59.70;100378.03;4377274;32;20041;-86
2021/03/25 06:50:11;;;;;;;;;;;;;;;9.59;59.71;100376.06;4378611;32;20376;-87
2021/03/25 06:52:36;;;;;;;;;;;;;;;9.89;59.73;100383.31;4377037;32;20035;-86
2021/03/25 06:55:21;;;;;;;;;;;;;;;10.00;59.73;100375.31;4377057;32;19999;-86
2021/03/25 06:57:57;;;;;;;;;;;;;;;10.08;59.73;100382.06;4377011;32;19987;-86
2021/03/25 07:00:23;;;;;;;;;;;;;;;10.32;59.76;100382.47;4377156;32;19978;-86
2021/03/25 07:02:48;;;;;;;;;;;;;;;10.67;59.77;100376.53;4377098;32;19986;-86
2021/03/25 07:05:24;;;;;;;;;;;;;;;10.67;59.77;100382.59;4377152;32;20021;-86
2021/03/25 07:07:52;;;;;;;;;;;;;;;10.78;59.78;100382.34;4376943;32;19983;-86
2021/03/25 07:10:17;;;;;;;;;;;;;;;10.94;59.79;100385.47;4376994;32;20006;-86
2021/03/25 07:12:44;;;;;;;;;;;;;;;11.04;59.79;100381.72;4377431;32;34071;-85
2021/03/25 07:15:18;;;;;;;;;;;;;;;11.25;59.81;100380.38;4377114;32;20062;-86
2021/03/25 07:17:43;;;;;;;;;;;;;;;11.23;59.81;100388.22;4376751;32;20033;-86
2021/03/25 07:20:11;;;;;;;;;;;;;;;11.27;59.80;100383.78;4376944;32;20041;-85
2021/03/25 07:22:37;;;;;;;;;;;;;;;11.34;59.81;100382.72;4377080;32;20019;-85
2021/03/25 07:25:18;;;;;;;;;;;;;;;11.48;59.82;100385.84;4377375;32;20013;-85
2021/03/25 07:27:43;;;;;;;;;;;;;;;11.67;59.82;100388.84;4375513;32;20001;-86
2021/03/25 07:30:10;;;;;;;;;;;;;;;11.95;59.84;100391.59;4374925;32;34245;-86
2021/03/25 07:32:36;;;;;;;;;;;;;;;12.19;59.85;100387.47;4375847;32;19987;-84
2021/03/25 07:35:34;;;;;;;;;;;;;;;12.17;59.85;100390.09;4377170;32;20335;-85
2021/03/25 07:38:00;;;;;;;;;;;;;;;12.29;59.86;100383.66;4343479;32;19990;-84
2021/03/25 07:40:27;;;;;;;;;;;;;;;12.25;59.85;100377.69;4377560;32;19982;-84
2021/03/25 07:42:52;;;;;;;;;;;;;;;12.42;59.87;100381.56;4375588;32;20644;-84
2021/03/25 07:45:18;;;;;;;;;;;;;;;12.55;59.88;100378.56;4362922;32;20353;-85
2021/03/25 07:47:44;;;;;;;;;;;;;;;12.73;59.89;100384.97;4376958;32;19989;-85
2021/03/25 07:50:19;;;;;;;;;;;;;;;12.88;59.89;100383.66;4376136;32;34631;-84
2021/03/25 07:52:44;;;;;;;;;;;;;;;12.95;59.90;100379.06;4376967;32;20013;-85
2021/03/25 07:55:13;;;;;;;;;;;;;;;13.13;59.91;100374.12;4376491;32;27266;-85
2021/03/25 07:57:40;;;;;;;;;;;;;;;13.19;59.92;100381.78;4375506;32;20355;-85
2021/03/25 08:00:20;;;;;;;;;;;;;;;13.35;59.91;100384.75;4376953;32;19974;-84
2021/03/25 08:02:45;;;;;;;;;;;;;;;13.23;59.91;100373.84;4377166;32;19990;-85
2021/03/25 08:05:20;;;;;;;;;;;;;;;13.19;59.92;100378.31;4377024;32;20013;-85
2021/03/25 08:07:46;;;;;;;;;;;;;;;13.23;59.91;100379.91;4381686;32;20409;-84
2021/03/25 08:10:26;;;;;;;;;;;;;;;13.19;59.91;100381.78;4392160;32;19971;-85
2021/03/25 08:12:51;;;;;;;;;;;;;;;13.40;59.92;100377.59;4378934;32;19982;-85
2021/03/25 08:15:16;;;;;;;;;;;;;;;13.39;59.92;100377.66;4374419;32;32130;-84
2021/03/25 08:17:43;;;;;;;;;;;;;;;13.40;59.92;100379.37;4388785;32;19971;-83
2021/03/25 08:20:17;;;;;;;;;;;;;;;13.58;59.94;100368.28;4378329;32;19993;-83
2021/03/25 08:22:55;;;;;;;;;;;;;;;13.62;59.93;100374.28;4378692;32;19990;-83
2021/03/25 08:25:21;;;;;;;;;;;;;;;13.38;59.92;100368.09;4392350;32;20332;-84
2021/03/25 08:27:51;;;;;;;;;;;;;;;13.46;59.92;100363.47;4378414;32;19978;-84
2021/03/25 08:30:35;;;;;;;;;;;;;;;13.54;59.93;100374.53;4378206;32;20006;-85
2021/03/25 08:33:18;;;;;;;;;;;;;;;13.50;59.93;100358.09;4392499;32;19993;-85
2021/03/25 08:35:47;;;;;;;;;;;;;;;13.78;59.95;100357.12;4378760;32;20010;-85
2021/03/25 08:38:51;;;;;;;;;;;;;;;13.90;59.96;100361.06;4378136;32;20542;-85
2021/03/25 08:41:16;;;;;;;;;;;;;;;14.01;59.95;100356.31;4344939;33;19983;-83
2021/03/25 08:44:02;;;;;;;;;;;;;;;14.00;59.95;100357.22;4344589;33;20322;-85
2021/03/25 08:46:28;;;;;;;;;;;;;;;14.11;59.96;100355.06;4365113;32;20117;-83
2021/03/25 08:49:14;;;;;;;;;;;;;;;14.28;59.97;100352.66;4378455;32;20077;-84
2021/03/25 08:51:39;;;;;;;;;;;;;;;14.34;59.98;100352.44;4365566;32;20464;-83
2021/03/25 08:54:09;;;;;;;;;;;;;;;14.43;59.98;100343.38;4378345;32;19987;-83
2021/03/25 08:56:40;;;;;;;;;;;;;;;14.56;59.99;100341.16;4365779;32;19990;-82
2021/03/25 08:59:11;;;;;;;;;;;;;;;14.64;60.00;100345.19;4378181;32;19974;-83
2021/03/25 09:01:56;;;;;;;;;;;;;;;14.76;59.99;100343.88;4392087;32;20038;-83
2021/03/25 09:04:21;;;;;;;;;;;;;;;14.70;59.99;100344.12;4378223;32;20267;-82
2021/03/25 09:06:47;;;;;;;;;;;;;;;14.76;59.99;100332.53;4377429;32;33066;-82
2021/03/25 09:09:15;;;;;;;;;;;;;;;14.87;60.01;100335.56;4378125;32;19978;-82
2021/03/25 09:11:41;;;;;;;;;;;;;;;14.93;60.01;100337.97;4376779;32;20006;-82
2021/03/25 09:14:06;;;;;;;;;;;;;;;14.93;60.01;100333.56;4377807;32;20009;-83
2021/03/25 09:16:34;;;;;;;;;;;;;;;15.01;60.02;100339.34;4377505;32;20032;-83
2021/03/25 09:19:04;;;;;;;;;;;;;;;14.99;60.01;100335.94;4377751;32;19979;-83
2021/03/25 09:21:32;;;;;;;;;;;;;;;15.05;60.02;100335.66;4376799;32;19987;-82
2021/03/25 09:24:01;;;;;;;;;;;;;;;15.18;60.03;100332.56;4391467;32;20036;-84
2021/03/25 09:26:26;;;;;;;;;;;;;;;15.20;60.02;100328.94;4391631;32;20013;-85
2021/03/25 09:29:06;;;;;;;;;;;;;;;15.27;60.03;100333.00;4391197;32;19975;-84
2021/03/25 09:31:33;;;;;;;;;;;;;;;15.31;60.04;100333.72;4377464;32;19978;-84
2021/03/25 09:33:58;;;;;;;;;;;;;;;15.34;60.03;100323.09;4391414;32;20030;-84
2021/03/25 09:36:23;;;;;;;;;;;;;;;15.69;60.05;100323.41;4377568;32;20001;-84
2021/03/25 09:38:58;;;;;;;;;;;;;;;15.54;60.04;100328.34;4391162;32;20007;-84
2021/03/25 09:41:26;;;;;;;;;;;;;;;15.48;60.04;100327.78;4391518;32;19993;-82
2021/03/25 09:43:51;;;;;;;;;;;;;;;15.63;60.05;100328.00;4391628;32;20609;-83
2021/03/25 09:46:36;;;;;;;;;;;;;;;15.74;60.05;100329.31;4377559;32;20527;-84
2021/03/25 09:49:29;;;;;;;;;;;;;;;15.80;60.06;100324.63;4377619;32;19997;-84
2021/03/25 09:52:11;;;;;;;;;;;;;;;15.69;60.05;100318.16;4390944;32;20342;-82
2021/03/25 09:54:39;;;;;;;;;;;;;;;15.66;60.05;100324.41;4391459;32;20033;-83
2021/03/25 09:57:28;;;;;;;;;;;;;;;15.76;60.05;100323.06;4377602;32;20069;-83
2021/03/25 09:59:55;;;;;;;;;;;;;;;16.04;60.07;100322.66;4384873;32;20045;-83
2021/03/25 10:02:39;;;;;;;;;;;;;;;16.43;60.09;100321.78;4377210;32;20343;-83
2021/03/25 10:05:24;;;;;;;;;;;;;;;16.72;60.11;100312.53;4377212;32;19994;-83
2021/03/25 10:07:53;;;;;;;;;;;;;;;16.99;60.12;100305.06;4390631;32;19986;-84
2021/03/25 10:10:19;;;;;;;;;;;;;;;17.10;60.13;100308.03;4377469;32;20054;-83
2021/03/25 10:12:45;;;;;;;;;;;;;;;17.15;60.13;100303.38;4391207;32;20093;-83
2021/03/25 10:15:29;;;;;;;;;;;;;;;16.81;60.11;100299.81;4391080;32;20369;-83
2021/03/25 10:17:54;;;;;;;;;;;;;;;16.79;60.12;100303.41;4391184;32;20045;-83
2021/03/25 10:20:38;;;;;;;;;;;;;;;16.75;60.10;100304.47;4391124;32;20244;-83
2021/03/25 10:23:03;;;;;;;;;;;;;;;16.81;60.12;100301.59;4389892;32;19974;-83
2021/03/25 10:25:30;;;;;;;;;;;;;;;17.02;60.13;100297.87;4375544;32;32611;-83
2021/03/25 10:27:57;;;;;;;;;;;;;;;16.94;60.12;100293.94;4376655;32;20496;-82
2021/03/25 10:30:25;;;;;;;;;;;;;;;17.04;60.13;100290.78;4376616;32;19983;-83
2021/03/25 10:32:50;;;;;;;;;;;;;;;17.11;60.13;100289.53;4376443;32;19993;-83
2021/03/25 10:35:20;;;;;;;;;;;;;;;16.88;60.12;100281.94;4376473;32;20030;-84
2021/03/25 10:37:46;;;;;;;;;;;;;;;16.80;60.12;100286.72;4390289;32;19959;-83
2021/03/25 10:40:23;;;;;;;;;;;;;;;16.97;60.12;100285.88;4377139;32;19986;-83
2021/03/25 10:42:56;;;;;;;;;;;;;;;17.03;60.13;100283.78;4377289;32;19998;-83
2021/03/25 10:45:34;;;;;;;;;;;;;;;17.22;60.13;100280.25;4390816;32;20343;-82
2021/03/25 10:48:04;;;;;;;;;;;;;;;17.23;60.14;100274.91;4377144;32;20387;-83
2021/03/25 10:50:34;;;;;;;;;;;;;;;17.28;60.14;100278.16;4376686;32;19986;-82
2021/03/25 10:53:06;;;;;;;;;;;;;;;17.15;60.14;100272.66;4376544;32;20052;-82
2021/03/25 10:55:36;;;;;;;;;;;;;;;17.02;60.13;100279.44;4376589;32;20005;-82
2021/03/25 10:58:02;;;;;;;;;;;;;;;17.32;60.14;100269.19;4376575;32;20050;-82
2021/03/25 11:00:31;;;;;;;;;;;;;;;17.44;60.14;100268.53;4376490;32;20010;-83
2021/03/25 11:02:58;;;;;;;;;;;;;;;17.45;60.15;100266.75;4390468;32;20066;-83
2021/03/25 11:05:26;;;;;;;;;;;;;;;17.56;60.15;100261.78;4377984;32;20013;-83
2021/03/25 11:07:58;;;;;;;;;;;;;;;17.51;60.15;100263.81;4378631;32;19990;-83
2021/03/25 11:10:28;;;;;;;;;;;;;;;17.59;60.15;100260.78;4378740;32;20045;-83
2021/03/25 11:13:03;;;;;;;;;;;;;;;17.59;60.15;100260.78;4392715;32;20001;-83
2021/03/25 11:15:35;;;;;;;;;;;;;;;17.69;60.15;100256.75;4392618;32;20057;-82
2021/03/25 11:18:15;;;;;;;;;;;;;;;17.59;60.15;100260.78;4378584;32;19998;-83
2021/03/25 11:20:40;;;;;;;;;;;;;;;17.62;60.16;100257.97;4378353;32;19970;-83
2021/03/25 11:23:05;;;;;;;;;;;;;;;17.76;60.17;100253.72;4378158;32;25141;-82
2021/03/25 11:25:31;;;;;;;;;;;;;;;17.89;60.17;100250.41;4377572;32;35855;-82
2021/03/25 11:28:01;;;;;;;;;;;;;;;17.91;60.17;100246.75;4378726;32;20368;-83
2021/03/25 11:30:37;;;;;;;;;;;;;;;17.99;60.19;100244.56;4378494;32;19993;-83
2021/03/25 11:33:19;;;;;;;;;;;;;;;18.05;60.19;100238.13;4392500;32;20020;-83
2021/03/25 11:35:44;;;;;;;;;;;;;;;17.86;60.18;100237.41;4392063;32;20050;-83
2021/03/25 11:38:35;;;;;;;;;;;;;;;18.01;60.19;100236.59;4391508;32;31227;-83
2021/03/25 11:41:07;;;;;;;;;;;;;;;18.07;60.19;100239.72;4390054;32;20085;-83
2021/03/25 11:43:40;;;;;;;;;;;;;;;18.24;60.19;100230.03;4378224;32;20021;-83
2021/03/25 11:46:05;;;;;;;;;;;;;;;18.28;60.19;100234.19;4378593;32;20017;-84
2021/03/25 11:48:32;;;;;;;;;;;;;;;17.94;60.18;100222.03;4377759;32;28226;-83
2021/03/25 11:51:17;;;;;;;;;;;;;;;18.18;60.20;100233.84;4378130;32;20004;-83
2021/03/25 11:53:44;;;;;;;;;;;;;;;18.34;60.20;100226.78;4392189;32;19993;-82
2021/03/25 11:56:39;;;;;;;;;;;;;;;18.40;60.20;100217.69;4378315;32;20009;-83
2021/03/25 11:59:20;;;;;;;;;;;;;;;18.35;60.20;100220.59;4382360;32;19997;-83
2021/03/25 12:01:46;;;;;;;;;;;;;;;18.45;60.21;100212.16;4378619;32;19979;-83
2021/03/25 12:04:14;;;;;;;;;;;;;;;18.35;60.20;100206.56;4377721;32;26004;-83
2021/03/25 12:06:56;;;;;;;;;;;;;;;18.60;60.21;100206.00;4392147;32;20328;-83
2021/03/25 12:09:21;;;;;;;;;;;;;;;18.59;60.21;100206.94;4378432;32;19986;-83
2021/03/25 12:11:47;;;;;;;;;;;;;;;18.49;60.20;100206.63;4377489;32;34470;-83
2021/03/25 12:14:13;;;;;;;;;;;;;;;18.35;60.20;100203.91;4377915;32;20004;-83
2021/03/25 12:16:38;;;;;;;;;;;;;;;18.36;60.20;100201.19;4392140;32;19982;-82
2021/03/25 12:19:03;;;;;;;;;;;;;;;18.62;60.22;100194.47;4377717;32;20264;-82
2021/03/25 12:21:32;;;;;;;;;;;;;;;18.60;60.20;100190.19;4377955;32;19994;-83
2021/03/25 12:23:58;;;;;;;;;;;;;;;18.65;60.21;100193.44;4392153;32;19990;-83
2021/03/25 12:26:23;;;;;;;;;;;;;;;18.75;60.22;100194.59;4378249;32;20046;-83
2021/03/25 12:28:48;;;;;;;;;;;;;;;18.78;60.22;100191.78;4378167;32;20319;-83
2021/03/25 12:31:17;;;;;;;;;;;;;;;18.69;60.21;100192.31;4378022;32;19974;-83
2021/03/25 12:33:42;;;;;;;;;;;;;;;18.68;60.21;100183.53;4378004;32;19997;-83
2021/03/25 12:36:08;;;;;;;;;;;;;;;18.72;60.22;100186.03;4378304;32;19998;-83
2021/03/25 12:38:33;;;;;;;;;;;;;;;18.70;60.22;100178.22;4392151;32;20283;-83
2021/03/25 12:40:58;;;;;;;;;;;;;;;18.79;60.22;100176.81;4378324;32;20016;-83
2021/03/25 12:43:24;;;;;;;;;;;;;;;18.71;60.23;100177.28;4376174;32;36502;-83
2021/03/25 12:45:51;;;;;;;;;;;;;;;18.55;60.22;100177.28;4377239;32;19994;-84
2021/03/25 12:48:19;;;;;;;;;;;;;;;18.52;60.20;100174.81;4377063;32;20057;-83
2021/03/25 12:50:45;;;;;;;;;;;;;;;18.49;60.21;100164.47;4377552;32;20008;-83
2021/03/25 12:53:10;;;;;;;;;;;;;;;18.49;60.21;100164.47;4377465;32;20316;-85
2021/03/25 12:55:35;;;;;;;;;;;;;;;18.31;60.21;100158.44;4377707;32;20044;-84